aviador You're here:

KECG Decoded Metar

ELIZABETH CITY in NC, USA
Report Time2018-07-18 09:54:00
UTC Time2018-07-18 11:01:12
Flight Rules Old
Wind260° at 05 kt
W.Decomp.*RWY 28: 4.9 kt HW 1.1 kt LCW
RWY 19: 1.1 kt HW 4.9 kt RCW
W.Rank260° ranks 21
Current wind is below 260° avg. (7.4)
Visibility9999 m
Phenomena:N/A
Clouds:Broken 110 Hf
Ceiling11,000 ft
Temp23°C (ISA +8)
Dew Point23°C (100% RH)
QNH1012 hPa
Density Alt1,378 ft
Elevation36 ft
Report Wrong Elevation
Raw Report
KECG 180954Z AUTO 26005KT 10SM BKN110 23/23 A2987 RMK AO2 SLP115
T02330233=

Extra information for KECG:More info

Metar Taf Metar & Taf Last 4 Metars F.Rules Stats Wind Profile Meteogram Temp Stats Airport Information Weather charts Add Link Nearby VenuesMetar ALERT Operation Metar Decoded Social comments

AIRNAV info for KECG